createdAt,value
2023-01-29T02:26:07.680Z,-2.93
2023-01-29T02:28:56.641Z,-2.52
2023-01-29T02:31:30.989Z,-2.63
2023-01-29T02:34:26.809Z,-2.62
2023-01-29T02:37:08.478Z,-2.55
2023-01-29T02:39:58.674Z,-2.58
2023-01-29T02:42:27.568Z,-2.60
2023-01-29T02:45:13.349Z,-2.68
2023-01-29T02:47:49.218Z,-2.72
2023-01-29T02:50:21.399Z,-2.75
2023-01-29T02:52:59.272Z,-2.79
2023-01-29T02:55:41.272Z,-2.79
2023-01-29T02:58:30.152Z,-2.72
2023-01-29T03:01:03.343Z,-2.71
2023-01-29T03:03:46.555Z,-2.71
2023-01-29T03:06:36.288Z,-2.72
2023-01-29T03:09:20.125Z,-2.71
2023-01-29T03:11:57.057Z,-2.74
2023-01-29T03:15:12.151Z,-2.78
2023-01-29T03:18:02.840Z,-2.71
2023-01-29T03:20:34.484Z,-2.66
2023-01-29T03:23:06.463Z,-2.59
2023-01-29T03:25:54.714Z,-2.52
2023-01-29T03:28:43.059Z,-2.47
2023-01-29T03:31:31.709Z,-2.43
2023-01-29T03:34:16.726Z,-2.39
2023-01-29T03:36:56.054Z,-2.32
2023-01-29T03:39:26.065Z,-2.20
2023-01-29T03:42:18.792Z,-2.16
2023-01-29T03:45:09.084Z,-2.12
2023-01-29T03:47:45.351Z,-2.09
2023-01-29T03:50:31.751Z,-2.08
2023-01-29T03:53:28.496Z,-2.08
2023-01-29T03:56:09.182Z,-2.12
2023-01-29T03:58:47.485Z,-2.15
2023-01-29T04:01:21.225Z,-2.12
2023-01-29T04:03:55.002Z,-2.05
2023-01-29T04:06:34.373Z,-2.02
2023-01-29T04:09:12.750Z,-2.01
2023-01-29T04:11:45.050Z,-2.02
2023-01-29T04:14:13.506Z,-2.04
2023-01-29T04:16:44.526Z,-2.05
2023-01-29T04:19:16.308Z,-2.09
2023-01-29T04:21:45.200Z,-2.13
2023-01-29T04:24:13.738Z,-2.17
2023-01-29T04:27:04.596Z,-2.21
2023-01-29T04:29:39.629Z,-2.19
2023-01-29T04:32:38.119Z,-2.12
2023-01-29T04:35:11.425Z,-2.11
2023-01-29T04:38:16.872Z,-2.08
2023-01-29T04:41:03.595Z,-2.05
2023-01-29T04:43:57.870Z,-2.06
2023-01-29T04:46:44.899Z,-2.07
2023-01-29T04:49:41.636Z,-2.10
2023-01-29T04:52:34.604Z,-2.09
2023-01-29T04:55:28.385Z,-2.03
2023-01-29T04:58:17.235Z,-1.93
2023-01-29T05:00:47.149Z,-1.98
2023-01-29T05:03:16.157Z,-1.87
2023-01-29T05:05:46.885Z,-1.84
2023-01-29T05:08:17.636Z,-1.85
2023-01-29T05:10:46.973Z,-1.86
2023-01-29T05:13:16.026Z,-1.89
2023-01-29T05:15:48.168Z,-1.83
2023-01-29T05:18:16.886Z,-1.73
2023-01-29T05:20:45.271Z,-1.69
2023-01-29T05:23:23.379Z,-1.66
2023-01-29T05:25:52.388Z,-1.61
2023-01-29T05:28:21.174Z,-1.57
2023-01-29T05:30:52.337Z,-1.53
2023-01-29T05:33:25.921Z,-1.53
2023-01-29T05:35:55.027Z,-1.53
2023-01-29T05:38:23.703Z,-1.53
2023-01-29T05:40:52.086Z,-1.49
2023-01-29T05:43:21.933Z,-1.52
2023-01-29T05:46:01.607Z,-1.53
2023-01-29T05:48:30.238Z,-1.53
2023-01-29T05:51:04.659Z,-1.61
2023-01-29T05:53:33.525Z,-1.63
2023-01-29T08:33:30.022Z,-0.14
2023-01-29T08:36:06.093Z,0.34
2023-01-29T08:38:34.341Z,0.27
2023-01-29T08:41:03.033Z,0.34
2023-01-29T08:43:31.816Z,0.47
2023-01-29T08:46:00.419Z,0.54
2023-01-29T08:48:30.623Z,0.57
2023-01-29T08:51:03.035Z,0.56
2023-01-29T08:53:32.816Z,0.50
2023-01-29T08:56:01.258Z,0.53
2023-01-29T08:58:29.984Z,0.63
2023-01-29T09:01:06.337Z,0.74
2023-01-29T09:03:34.631Z,0.80
2023-01-29T09:06:03.728Z,0.83
2023-01-29T09:08:32.320Z,0.86
2023-01-29T09:11:01.819Z,0.88
2023-01-29T09:13:31.634Z,0.84
2023-01-29T09:16:01.447Z,0.85
2023-01-29T09:18:30.443Z,0.93
2023-01-29T09:20:59.025Z,0.96
2023-01-29T09:23:28.022Z,0.97
2023-01-29T09:25:56.927Z,1.02
2023-01-29T09:28:25.605Z,1.07
2023-01-29T09:30:54.078Z,1.11
2023-01-29T09:33:22.699Z,1.18
2023-01-29T09:35:51.050Z,1.18
2023-01-29T09:38:19.743Z,1.14
2023-01-29T09:41:23.655Z,1.11
2023-01-29T09:43:56.031Z,1.10
2023-01-29T09:46:28.218Z,1.08
2023-01-29T09:49:29.967Z,1.11
2023-01-29T09:52:01.622Z,1.17
2023-01-29T09:54:45.581Z,1.14
2023-01-29T09:57:19.589Z,1.16
2023-01-29T09:59:47.863Z,1.14
2023-01-29T10:02:38.777Z,1.06
2023-01-29T10:05:18.771Z,0.99
2023-01-29T10:08:17.009Z,1.00
2023-01-29T10:10:51.877Z,1.07
2023-01-29T10:13:30.686Z,1.10
2023-01-29T10:16:06.137Z,1.13
2023-01-29T10:18:40.637Z,1.15
2023-01-29T10:21:24.589Z,1.12
2023-01-29T10:23:56.249Z,1.09
2023-01-29T10:26:25.254Z,1.05
2023-01-29T10:28:55.298Z,1.05
2023-01-29T10:31:28.138Z,1.06
2023-01-29T10:34:03.384Z,1.03
2023-01-29T10:36:47.721Z,1.02
2023-01-29T10:39:19.910Z,1.05
2023-01-29T10:42:07.237Z,1.06
2023-01-29T10:45:10.742Z,1.06
2023-01-29T10:47:48.572Z,1.14
2023-01-29T10:50:23.174Z,1.21
2023-01-29T10:53:16.733Z,1.27
2023-01-29T10:56:10.718Z,1.36
2023-01-29T10:58:50.259Z,1.45
2023-01-29T11:01:18.652Z,1.48
2023-01-29T11:03:47.122Z,1.45
2023-01-29T11:06:21.860Z,1.39
2023-01-29T11:09:09.176Z,1.43
2023-01-29T11:11:46.688Z,1.50
2023-01-29T11:14:30.306Z,1.49
2023-01-29T11:16:59.005Z,1.50
2023-01-29T11:19:42.534Z,1.48
2023-01-29T11:22:20.070Z,1.50
2023-01-29T11:25:10.024Z,1.47
2023-01-29T11:27:43.505Z,1.39
2023-01-29T11:30:38.971Z,1.20
2023-01-29T11:33:09.994Z,1.09
2023-01-29T11:35:38.345Z,1.11
2023-01-29T11:38:26.503Z,1.21
2023-01-29T11:41:11.451Z,1.29
2023-01-29T11:43:39.836Z,1.29
2023-01-29T11:46:13.321Z,1.30
2023-01-29T11:48:42.137Z,1.33
2023-01-29T11:51:12.546Z,1.32
2023-01-29T11:53:45.319Z,1.28
2023-01-29T11:56:40.845Z,1.25
2023-01-29T11:59:28.480Z,1.25
2023-01-29T12:01:56.956Z,1.25
2023-01-29T12:04:25.717Z,1.26
2023-01-29T12:06:54.033Z,1.28
2023-01-29T12:09:24.168Z,1.30
2023-01-29T12:11:52.827Z,1.29
2023-01-29T12:14:30.078Z,1.21
2023-01-29T12:17:15.414Z,1.17
2023-01-29T12:19:59.543Z,1.20
2023-01-29T12:22:36.114Z,1.25
2023-01-29T12:25:19.546Z,1.27
2023-01-29T12:28:09.581Z,1.30
2023-01-29T12:30:49.601Z,1.36
2023-01-29T12:34:00.565Z,1.36
2023-01-29T12:36:44.199Z,1.34
2023-01-29T12:39:12.478Z,1.27
2023-01-29T12:41:46.694Z,1.19
2023-01-29T12:44:37.726Z,1.16
2023-01-29T12:47:07.052Z,1.09
2023-01-29T12:49:35.899Z,0.99
2023-01-29T12:52:07.247Z,0.97
2023-01-29T12:54:38.805Z,0.97
2023-01-29T12:57:42.719Z,0.94
2023-01-29T13:00:17.871Z,0.89
2023-01-29T13:03:08.208Z,0.82
2023-01-29T13:05:39.907Z,0.77
2023-01-29T13:08:14.845Z,0.72
2023-01-29T13:10:44.974Z,0.70
2023-01-29T13:13:15.186Z,0.63
2023-01-29T13:15:44.704Z,0.64
2023-01-29T13:18:33.864Z,0.67
2023-01-29T13:21:02.248Z,0.68
2023-01-29T13:24:09.643Z,0.72
2023-01-29T13:26:38.352Z,0.78
2023-01-29T13:29:06.911Z,0.76
2023-01-29T13:31:36.970Z,0.71
2023-01-29T13:34:15.769Z,0.66
2023-01-29T13:36:48.912Z,0.60
2023-01-29T13:39:33.522Z,0.63
2023-01-29T13:42:03.586Z,0.68
2023-01-29T13:44:38.003Z,0.68
2023-01-29T13:47:08.284Z,0.65
2023-01-29T13:49:41.065Z,0.63
2023-01-29T13:52:43.644Z,0.62
2023-01-29T13:55:15.223Z,0.60
2023-01-29T18:18:00.416Z,-0.23
2023-01-29T18:20:30.406Z,0.06
2023-01-29T18:22:58.888Z,-0.13
2023-01-29T18:25:27.271Z,-0.22
2023-01-29T18:27:55.660Z,-0.29
2023-01-29T18:30:24.371Z,-0.37
2023-01-29T18:32:54.149Z,-0.44
2023-01-29T18:35:22.867Z,-0.49
2023-01-29T18:37:51.836Z,-0.54
2023-01-29T18:40:20.315Z,-0.57
2023-01-29T18:42:49.119Z,-0.60
2023-01-29T18:45:17.623Z,-0.63
2023-01-29T18:47:46.585Z,-0.67
2023-01-29T18:50:14.996Z,-0.68
2023-01-29T18:52:46.619Z,-0.72
2023-01-29T18:55:15.757Z,-0.75
2023-01-29T18:58:26.870Z,-0.75
2023-01-29T19:00:33.577Z,-0.76
2023-01-29T19:03:02.578Z,-0.78
2023-01-29T19:05:33.783Z,-0.77
2023-01-29T19:08:02.300Z,-0.75
2023-01-29T19:10:30.889Z,-0.75
2023-01-29T19:13:00.497Z,-0.75
2023-01-29T19:15:33.692Z,-0.75
2023-01-29T19:18:04.531Z,-0.76
2023-01-29T19:20:33.123Z,-0.82
2023-01-29T19:23:01.599Z,-0.86
2023-01-29T19:25:30.601Z,-0.85
2023-01-29T19:27:58.975Z,-0.96
2023-01-29T19:30:27.495Z,-0.87
2023-01-29T19:32:56.767Z,-0.88
2023-01-29T19:35:25.241Z,-0.89
2023-01-29T19:37:53.829Z,-0.89
2023-01-29T19:40:22.310Z,-0.89
2023-01-29T19:42:55.017Z,-0.90
2023-01-29T19:45:49.118Z,-0.93
2023-01-29T19:48:20.532Z,-0.93
2023-01-29T19:51:08.887Z,-0.95
2023-01-29T19:53:38.296Z,-0.95
2023-01-29T19:56:08.417Z,-0.97
2023-01-29T19:58:37.089Z,-1.00
2023-01-29T20:01:07.661Z,-1.03
2023-01-29T20:03:38.249Z,-1.05
2023-01-29T20:06:06.940Z,-1.07
2023-01-29T20:08:35.951Z,-1.10
2023-01-29T20:11:05.844Z,-1.14
2023-01-29T20:13:34.227Z,-1.16
2023-01-29T20:16:04.143Z,-1.19
2023-01-29T20:18:32.933Z,-1.22
2023-01-29T20:21:05.997Z,-1.22
2023-01-29T20:23:38.271Z,-1.21
2023-01-29T20:26:08.031Z,-1.20
2023-01-29T20:28:36.728Z,-1.19
2023-01-29T20:31:06.038Z,-1.17
2023-01-29T20:33:38.816Z,-1.18
2023-01-29T20:36:10.208Z,-1.18
2023-01-29T20:38:38.923Z,-1.17
2023-01-29T20:41:09.261Z,-1.18
2023-01-29T20:43:38.026Z,-1.17
2023-01-29T20:46:06.742Z,-1.18
2023-01-29T20:48:38.974Z,-1.17
2023-01-29T20:51:10.020Z,-1.17
2023-01-29T20:53:38.720Z,-1.18
2023-01-29T20:56:11.367Z,-1.16
2023-01-29T20:58:43.653Z,-1.15
2023-01-29T21:01:13.446Z,-1.14
2023-01-29T21:03:41.972Z,-1.14
2023-01-29T21:06:10.946Z,-1.20
2023-01-29T21:08:40.250Z,-1.24
2023-01-29T21:11:08.936Z,-1.26
2023-01-29T21:13:37.520Z,-1.28
2023-01-29T21:16:07.395Z,-1.22
2023-01-29T21:18:35.717Z,-1.19
2023-01-29T21:21:04.708Z,-1.18
2023-01-29T21:23:33.799Z,-1.17
2023-01-29T21:26:04.145Z,-1.16
2023-01-29T21:28:33.122Z,-1.18
2023-01-29T21:31:05.309Z,-1.17
2023-01-29T21:33:35.322Z,-1.15
2023-01-29T21:36:04.832Z,-1.16
2023-01-29T21:38:33.307Z,-1.18
2023-01-29T21:41:06.581Z,-1.19
